Time;durP1;ratioP1;P1;durP2;ratioP2;P2;SDS_P1;SDS_P2;PMS_P1;PMS_P2;Temp;Humidity;BMP_temperature;BMP_pressure;BME280_temperature;BME280_humidity;BME280_pressure;Samples;Min_cycle;Max_cycle;Signal;HPM_P1;HPM_P2
2022/08/15 00:00:16;;;;;;;7.00;3.72;;;23.90;70.80;;;;;;8311186;28;20096;-77
2022/08/15 00:04:18;;;;;;;6.07;3.83;;;23.80;72.10;;;;;;8303291;28;20103;-75
2022/08/15 00:08:21;;;;;;;8.30;4.00;;;23.70;73.30;;;;;;8316001;28;21479;-77
2022/08/15 00:12:24;;;;;;;7.60;4.20;;;23.60;74.00;;;;;;8311875;28;20053;-76
2022/08/15 00:16:32;;;;;;;5.32;3.88;;;23.60;74.70;;;;;;8304737;28;20049;-77
2022/08/15 00:20:38;;;;;;;7.35;3.67;;;23.50;75.40;;;;;;8316648;28;20507;-76
2022/08/15 00:24:40;;;;;;;7.63;4.07;;;23.40;75.80;;;;;;8316438;28;20081;-77
2022/08/15 00:28:42;;;;;;;8.18;3.85;;;23.30;76.10;;;;;;8310167;28;20139;-76
2022/08/15 00:32:55;;;;;;;5.65;3.42;;;23.30;76.30;;;;;;8309668;28;20400;-78
2022/08/15 00:36:57;;;;;;;6.00;3.90;;;23.20;76.40;;;;;;8303655;28;20038;-76
2022/08/15 00:45:26;;;;;;;8.38;3.80;;;23.10;77.30;;;;;;8302245;28;20049;-78
2022/08/15 00:49:33;;;;;;;6.07;3.83;;;23.10;77.30;;;;;;8301097;28;20088;-74
2022/08/15 00:53:37;;;;;;;7.15;3.80;;;23.00;77.40;;;;;;8303819;28;20051;-75
2022/08/15 00:57:43;;;;;;;5.53;3.35;;;23.00;77.90;;;;;;8310462;28;20045;-75
2022/08/15 01:01:46;;;;;;;5.28;3.20;;;22.90;77.70;;;;;;8301600;28;20507;-76
2022/08/15 01:05:53;;;;;;;6.22;3.67;;;22.80;78.00;;;;;;8306849;28;20495;-77
2022/08/15 01:09:56;;;;;;;6.03;3.47;;;22.80;78.60;;;;;;8312634;28;20042;-78
2022/08/15 01:13:59;;;;;;;6.50;3.53;;;22.80;78.90;;;;;;8310606;28;20042;-76
2022/08/15 01:18:01;;;;;;;6.50;3.70;;;22.70;79.40;;;;;;8306893;28;20052;-76
2022/08/15 01:22:34;;;;;;;7.88;3.35;;;22.60;79.90;;;;;;8309973;28;20141;-78
2022/08/15 01:26:40;;;;;;;7.85;3.50;;;22.70;80.70;;;;;;8311145;28;20048;-76
2022/08/15 01:30:47;;;;;;;7.85;3.47;;;22.60;81.60;;;;;;8308077;28;20107;-76
2022/08/15 01:34:49;;;;;;;5.80;3.53;;;22.50;82.20;;;;;;8306897;28;20045;-77
2022/08/15 01:39:01;;;;;;;6.72;3.50;;;22.60;82.60;;;;;;8308265;28;20407;-78
2022/08/15 01:43:08;;;;;;;7.68;3.72;;;22.50;83.80;;;;;;8300312;28;20084;-78
2022/08/15 01:47:19;;;;;;;6.68;3.85;;;22.50;83.70;;;;;;8305696;28;20476;-77
2022/08/15 01:51:21;;;;;;;7.55;3.70;;;22.50;84.10;;;;;;8308102;28;20407;-76
2022/08/15 01:55:29;;;;;;;7.03;3.70;;;22.40;84.70;;;;;;8321445;28;20146;-77
2022/08/15 01:59:33;;;;;;;7.72;3.47;;;22.40;84.80;;;;;;8320570;28;20050;-76
2022/08/15 02:03:38;;;;;;;5.35;3.38;;;22.40;85.40;;;;;;8330854;28;20056;-78
2022/08/15 02:07:40;;;;;;;8.13;3.78;;;22.30;86.30;;;;;;8327382;28;20546;-77
2022/08/15 02:11:42;;;;;;;6.53;3.50;;;22.30;86.10;;;;;;8303728;28;20050;-77
2022/08/15 02:15:46;;;;;;;6.32;3.42;;;22.20;86.50;;;;;;8303201;28;20042;-78
2022/08/15 02:19:52;;;;;;;8.15;3.70;;;22.20;86.60;;;;;;8303097;28;20408;-76
2022/08/15 02:23:54;;;;;;;6.43;3.22;;;22.20;86.80;;;;;;8308482;28;20045;-79
2022/08/15 02:27:56;;;;;;;5.13;3.45;;;22.30;86.60;;;;;;8308687;28;20405;-77
2022/08/15 02:32:06;;;;;;;5.43;3.50;;;22.30;86.40;;;;;;8302673;28;20042;-78
2022/08/15 02:36:09;;;;;;;6.28;3.40;;;22.30;86.60;;;;;;8319840;28;20633;-78
2022/08/15 02:40:15;;;;;;;6.75;3.22;;;22.30;86.40;;;;;;8305243;28;20396;-79
2022/08/15 02:44:20;;;;;;;5.78;3.15;;;22.40;86.50;;;;;;8307942;28;20124;-76
2022/08/15 02:48:23;;;;;;;9.95;3.50;;;22.40;86.50;;;;;;8307078;28;20058;-77
2022/08/15 02:52:25;;;;;;;7.68;3.40;;;22.30;86.40;;;;;;8304629;28;20049;-77
2022/08/15 02:56:29;;;;;;;8.20;3.60;;;22.20;87.00;;;;;;8306238;28;20049;-78
2022/08/15 03:00:32;;;;;;;6.15;3.22;;;22.30;87.00;;;;;;8299006;28;20050;-79
2022/08/15 03:04:37;;;;;;;6.53;3.45;;;22.20;87.00;;;;;;8305801;28;20050;-75
2022/08/15 03:08:41;;;;;;;5.35;3.40;;;22.30;86.90;;;;;;8302837;28;20041;-78
2022/08/15 03:12:53;;;;;;;9.52;3.88;;;22.30;87.20;;;;;;8314496;28;20046;-76
2022/08/15 03:16:56;;;;;;;5.00;3.53;;;22.40;87.30;;;;;;8313790;28;20038;-76
2022/08/15 03:21:00;;;;;;;6.65;3.40;;;22.40;87.50;;;;;;8299429;28;20480;-76
2022/08/15 03:25:03;;;;;;;6.03;3.17;;;22.30;87.30;;;;;;8300872;28;20049;-76
2022/08/15 03:29:06;;;;;;;6.43;3.28;;;22.20;87.90;;;;;;8311423;28;20052;-76
2022/08/15 03:33:08;;;;;;;5.45;3.00;;;22.10;88.90;;;;;;8309562;28;20404;-76
2022/08/15 03:37:12;;;;;;;6.55;3.10;;;22.00;89.40;;;;;;8304063;28;20057;-76
2022/08/15 03:41:16;;;;;;;7.13;3.13;;;22.00;90.10;;;;;;8318794;28;20072;-74
2022/08/15 03:45:19;;;;;;;4.55;2.97;;;22.00;90.60;;;;;;8309484;28;20052;-75
2022/08/15 03:49:21;;;;;;;6.38;3.13;;;21.90;90.80;;;;;;8309179;28;20056;-77
2022/08/15 03:53:28;;;;;;;6.25;3.30;;;21.90;91.20;;;;;;8309337;28;20053;-76
2022/08/15 03:57:31;;;;;;;7.75;3.40;;;21.80;91.60;;;;;;8307504;28;20127;-77
2022/08/15 04:01:36;;;;;;;5.82;3.38;;;21.70;91.90;;;;;;8315662;28;20049;-78
2022/08/15 04:05:39;;;;;;;7.25;3.33;;;21.70;92.30;;;;;;8314136;28;20415;-77
2022/08/15 04:09:43;;;;;;;5.88;3.13;;;21.60;92.70;;;;;;8325057;28;20050;-78
2022/08/15 04:13:46;;;;;;;7.70;3.10;;;21.60;92.90;;;;;;8303652;28;20100;-78
2022/08/15 04:17:48;;;;;;;6.05;3.10;;;21.60;93.00;;;;;;8301997;28;20066;-75
2022/08/15 04:21:50;;;;;;;5.53;3.20;;;21.60;93.00;;;;;;8302291;28;20050;-75
2022/08/15 04:25:55;;;;;;;6.60;3.20;;;21.70;92.90;;;;;;8302406;28;20057;-75
2022/08/15 04:29:57;;;;;;;4.90;2.97;;;21.70;93.10;;;;;;8301699;28;20141;-75
2022/08/15 04:34:00;;;;;;;6.30;3.22;;;21.70;93.10;;;;;;8301592;28;20049;-78
2022/08/15 04:38:02;;;;;;;5.13;3.05;;;21.80;93.10;;;;;;8301714;28;20046;-78
2022/08/15 04:42:06;;;;;;;6.10;3.08;;;21.80;93.40;;;;;;8301977;28;20119;-76
2022/08/15 04:46:09;;;;;;;5.57;3.10;;;21.80;93.00;;;;;;8301894;28;20488;-77
2022/08/15 04:50:12;;;;;;;6.22;3.13;;;21.80;93.30;;;;;;8300342;28;20049;-76
2022/08/15 04:54:16;;;;;;;6.05;3.15;;;21.80;93.60;;;;;;8301106;28;20050;-78
2022/08/15 04:58:20;;;;;;;5.75;2.70;;;21.70;92.90;;;;;;8300698;28;20111;-77
2022/08/15 05:02:25;;;;;;;6.60;2.83;;;21.70;92.80;;;;;;8300233;28;20050;-78
2022/08/15 05:06:27;;;;;;;4.90;2.60;;;21.70;93.00;;;;;;8301818;28;20499;-76
2022/08/15 05:10:30;;;;;;;5.50;2.50;;;21.60;92.80;;;;;;8301332;28;20061;-75
2022/08/15 05:14:33;;;;;;;4.18;2.40;;;21.60;92.80;;;;;;8315635;28;20064;-76
2022/08/15 05:18:38;;;;;;;6.13;2.67;;;21.50;92.70;;;;;;8336443;28;20494;-77
2022/08/15 05:22:54;;;;;;;6.75;2.72;;;21.50;93.30;;;;;;8336483;28;20045;-77
2022/08/15 05:26:57;;;;;;;6.10;2.45;;;21.30;93.20;;;;;;8336978;28;20060;-76
2022/08/15 05:31:03;;;;;;;6.07;2.65;;;21.30;93.10;;;;;;8335436;28;20045;-75
2022/08/15 05:35:06;;;;;;;4.78;2.50;;;21.30;92.90;;;;;;8334177;28;20045;-79
2022/08/15 05:39:23;;;;;;;4.97;2.28;;;21.30;93.00;;;;;;8334309;28;20045;-76
2022/08/15 05:43:51;;;;;;;4.80;2.35;;;21.30;92.90;;;;;;8307552;28;20552;-76
2022/08/15 05:48:05;;;;;;;6.57;2.70;;;21.30;92.70;;;;;;8333054;28;20045;-76
2022/08/15 05:52:26;;;;;;;5.43;2.50;;;21.30;92.80;;;;;;8332716;28;20423;-77
2022/08/15 05:56:41;;;;;;;5.00;2.30;;;21.30;93.00;;;;;;8332287;28;20057;-75
2022/08/15 06:00:46;;;;;;;5.43;2.47;;;21.30;92.90;;;;;;8331335;28;20045;-77
2022/08/15 06:04:56;;;;;;;4.72;2.33;;;21.40;93.00;;;;;;8330337;28;20046;-77
2022/08/15 06:09:06;;;;;;;4.88;2.30;;;21.50;93.00;;;;;;8331081;28;20049;-73
2022/08/15 06:13:13;;;;;;;5.07;2.23;;;21.50;92.70;;;;;;8330969;28;20056;-73
2022/08/15 06:17:22;;;;;;;6.18;2.40;;;21.50;92.70;;;;;;8329292;28;20057;-74
2022/08/15 06:21:40;;;;;;;5.00;2.55;;;21.40;92.90;;;;;;8309973;28;20042;-74
2022/08/15 06:25:53;;;;;;;5.53;2.40;;;21.30;93.70;;;;;;8330466;28;20045;-72
2022/08/15 06:30:08;;;;;;;4.30;2.40;;;21.30;93.40;;;;;;8333400;28;20049;-72
2022/08/15 06:34:22;;;;;;;4.72;2.60;;;21.20;93.60;;;;;;8350785;28;20403;-73
2022/08/15 06:38:48;;;;;;;5.90;2.63;;;21.20;94.00;;;;;;8350417;28;20045;-73
2022/08/15 06:42:50;;;;;;;5.82;2.40;;;21.10;94.40;;;;;;8337451;28;20077;-74
2022/08/15 06:46:55;;;;;;;5.05;2.67;;;21.00;94.90;;;;;;8344112;28;20053;-73
2022/08/15 06:51:00;;;;;;;4.93;2.58;;;21.10;94.90;;;;;;8335425;28;20053;-72
2022/08/15 06:55:05;;;;;;;5.80;2.95;;;21.00;95.40;;;;;;8332050;28;20599;-74
2022/08/15 06:59:22;;;;;;;5.68;2.97;;;21.10;95.40;;;;;;8332132;28;20407;-73
2022/08/15 07:03:42;;;;;;;5.63;2.67;;;21.20;95.30;;;;;;8332638;28;20092;-74
2022/08/15 07:07:49;;;;;;;5.45;2.70;;;21.30;95.40;;;;;;8337781;28;20053;-73
2022/08/15 07:12:05;;;;;;;6.00;2.65;;;21.40;94.80;;;;;;8337784;28;20054;-74
2022/08/15 07:16:17;;;;;;;7.28;2.38;;;21.40;94.20;;;;;;8323104;28;20045;-73
2022/08/15 07:20:19;;;;;;;4.80;2.45;;;21.50;93.70;;;;;;8304768;28;20477;-73
2022/08/15 07:24:29;;;;;;;5.13;2.30;;;21.50;92.50;;;;;;8305437;28;20050;-73
2022/08/15 07:28:35;;;;;;;4.18;2.30;;;21.60;92.10;;;;;;8304406;28;20050;-72
2022/08/15 07:32:52;;;;;;;6.07;1.70;;;21.60;92.40;;;;;;8304307;28;20050;-74
2022/08/15 07:36:58;;;;;;;5.05;1.88;;;21.70;90.70;;;;;;8304366;28;20492;-72
2022/08/15 07:41:25;;;;;;;3.53;1.75;;;21.80;90.50;;;;;;8304818;28;20045;-73
2022/08/15 07:45:32;;;;;;;4.18;1.77;;;21.90;90.00;;;;;;8308045;28;20066;-73
2022/08/15 07:49:37;;;;;;;3.05;1.67;;;22.00;88.40;;;;;;8303002;28;20483;-72
2022/08/15 07:53:52;;;;;;;3.17;1.75;;;22.10;88.50;;;;;;8334300;28;20056;-73
2022/08/15 07:58:02;;;;;;;4.90;1.65;;;22.20;87.00;;;;;;8303051;28;20050;-72
2022/08/15 08:02:24;;;;;;;3.03;1.60;;;22.30;85.40;;;;;;8303892;28;20054;-74
2022/08/15 08:06:33;;;;;;;2.95;1.45;;;22.20;85.80;;;;;;8303481;28;20053;-72
2022/08/15 08:10:40;;;;;;;3.40;1.83;;;22.30;84.00;;;;;;8302878;28;20053;-73
2022/08/15 08:15:02;;;;;;;4.53;1.90;;;22.20;85.50;;;;;;8324285;28;20149;-73
2022/08/15 08:19:16;;;;;;;3.65;1.50;;;22.30;85.10;;;;;;8332225;28;20053;-72
2022/08/15 08:23:24;;;;;;;3.45;1.70;;;22.30;85.20;;;;;;8332141;28;20045;-74
2022/08/15 08:27:40;;;;;;;4.15;1.80;;;22.40;84.60;;;;;;8330575;28;20056;-74
2022/08/15 08:31:55;;;;;;;4.35;1.50;;;22.50;83.90;;;;;;8298937;28;20049;-73
2022/08/15 08:36:09;;;;;;;3.50;1.70;;;22.60;83.60;;;;;;8298327;28;20054;-72
2022/08/15 08:44:53;;;;;;;3.45;1.63;;;22.70;82.00;;;;;;8300984;28;20097;-73
2022/08/15 08:49:08;;;;;;;3.10;1.80;;;22.70;82.50;;;;;;8315131;28;20045;-71
2022/08/15 08:53:28;;;;;;;2.78;1.50;;;22.80;82.90;;;;;;8330822;28;20396;-73
2022/08/15 08:57:36;;;;;;;4.43;2.00;;;22.90;82.10;;;;;;8329054;28;20460;-74
2022/08/15 09:01:40;;;;;;;3.03;1.70;;;22.90;81.70;;;;;;8328340;28;20052;-73
2022/08/15 09:05:49;;;;;;;3.30;1.80;;;23.00;81.80;;;;;;8329813;28;20053;-73
2022/08/15 09:09:56;;;;;;;4.72;1.90;;;23.10;82.00;;;;;;8333793;28;20419;-73
2022/08/15 09:14:07;;;;;;;3.63;1.85;;;23.20;81.60;;;;;;8327836;28;20484;-72
2022/08/15 09:18:16;;;;;;;4.50;2.03;;;23.20;81.00;;;;;;8329822;28;20084;-73
2022/08/15 09:22:19;;;;;;;3.92;1.90;;;23.40;79.60;;;;;;8327588;28;20052;-73
2022/08/15 09:26:35;;;;;;;5.15;1.98;;;23.40;78.90;;;;;;8327651;28;20048;-74
2022/08/15 09:30:39;;;;;;;4.32;1.88;;;23.60;78.30;;;;;;8316109;28;20444;-73
2022/08/15 09:35:11;;;;;;;3.67;1.88;;;23.60;78.10;;;;;;8296650;28;20412;-73
2022/08/15 09:39:36;;;;;;;4.25;2.13;;;23.60;77.30;;;;;;8295476;28;20061;-73
2022/08/15 09:44:26;;;;;;;3.80;1.77;;;23.60;78.00;;;;;;8298552;28;20530;-74
2022/08/15 09:49:01;;;;;;;3.30;1.70;;;23.80;77.00;;;;;;8310789;28;20049;-73
2022/08/15 09:53:17;;;;;;;4.40;2.10;;;23.90;75.70;;;;;;8328264;28;20045;-73
2022/08/15 09:57:34;;;;;;;5.07;2.65;;;23.90;75.60;;;;;;8328302;28;20099;-74
2022/08/15 10:01:48;;;;;;;4.50;2.05;;;24.00;74.50;;;;;;8327965;28;20050;-74
2022/08/15 10:06:04;;;;;;;4.72;1.80;;;24.00;74.10;;;;;;8327928;28;20132;-74
2022/08/15 10:10:15;;;;;;;4.30;2.13;;;24.00;73.50;;;;;;8325884;28;20045;-73
2022/08/15 10:14:29;;;;;;;4.07;1.80;;;24.10;73.20;;;;;;8313232;28;20108;-74
2022/08/15 10:19:08;;;;;;;3.42;2.00;;;24.20;72.30;;;;;;8292480;28;20045;-73
2022/08/15 10:23:15;;;;;;;3.78;1.80;;;24.30;70.90;;;;;;8294227;28;20408;-73
2022/08/15 10:27:22;;;;;;;3.53;2.03;;;24.40;71.00;;;;;;8295345;28;20053;-73
2022/08/15 10:31:29;;;;;;;4.72;1.90;;;24.40;70.00;;;;;;8295410;28;20060;-74
2022/08/15 10:35:45;;;;;;;4.05;1.90;;;24.50;69.90;;;;;;8294591;28;20054;-74
2022/08/15 10:40:34;;;;;;;4.13;1.90;;;24.60;70.00;;;;;;8302617;28;20053;-73
2022/08/15 10:44:50;;;;;;;2.67;1.55;;;24.60;69.50;;;;;;8294045;28;20096;-73
2022/08/15 10:49:08;;;;;;;3.83;1.90;;;24.80;68.90;;;;;;8300613;28;20045;-74
2022/08/15 10:53:27;;;;;;;3.88;1.75;;;24.90;67.60;;;;;;8301275;28;20090;-73
2022/08/15 10:57:46;;;;;;;3.67;2.00;;;24.90;67.70;;;;;;8310878;28;20050;-72
2022/08/15 11:01:50;;;;;;;2.70;1.60;;;25.00;67.20;;;;;;8300653;28;20111;-73
2022/08/15 11:06:04;;;;;;;5.00;1.85;;;25.10;67.90;;;;;;8301866;28;20124;-74
2022/08/15 11:10:13;;;;;;;4.18;1.90;;;25.30;66.40;;;;;;8311296;28;20127;-74
2022/08/15 11:14:24;;;;;;;3.55;1.65;;;25.40;66.20;;;;;;8332494;28;20514;-75
2022/08/15 11:18:50;;;;;;;4.40;1.83;;;25.50;65.30;;;;;;8316959;28;20339;-76
2022/08/15 11:22:55;;;;;;;4.93;2.10;;;25.60;65.50;;;;;;8301732;28;20050;-74
2022/08/15 11:27:16;;;;;;;4.32;2.10;;;25.60;64.40;;;;;;8301931;28;20054;-73
2022/08/15 11:31:20;;;;;;;3.70;1.92;;;25.70;63.70;;;;;;8300827;28;20412;-73
2022/08/15 11:35:28;;;;;;;3.78;2.25;;;25.80;62.70;;;;;;8302594;28;20054;-73
2022/08/15 11:39:33;;;;;;;5.28;2.30;;;25.90;63.10;;;;;;8327809;28;20061;-74
2022/08/15 11:43:40;;;;;;;4.55;2.08;;;26.00;62.60;;;;;;8335343;28;20057;-74
2022/08/15 11:47:48;;;;;;;4.97;2.00;;;26.10;62.40;;;;;;8332482;28;20055;-74
2022/08/15 11:51:50;;;;;;;4.90;2.30;;;26.20;62.20;;;;;;8333392;28;20480;-74
2022/08/15 11:55:53;;;;;;;4.85;2.10;;;26.40;61.70;;;;;;8309681;28;20452;-72
2022/08/15 12:00:04;;;;;;;4.32;2.15;;;26.40;62.00;;;;;;8298726;28;20054;-75
2022/08/15 12:04:09;;;;;;;4.15;2.30;;;26.60;60.50;;;;;;8299181;28;20058;-74
2022/08/15 12:08:11;;;;;;;4.50;2.28;;;26.80;59.80;;;;;;8300158;28;20418;-75
2022/08/15 12:12:42;;;;;;;3.70;2.08;;;26.90;60.00;;;;;;8300057;28;20054;-74
2022/08/15 12:16:50;;;;;;;4.75;2.30;;;27.00;59.90;;;;;;8298196;28;20053;-73
2022/08/15 12:21:10;;;;;;;3.92;2.20;;;27.00;58.40;;;;;;8299411;28;20038;-76
2022/08/15 12:25:12;;;;;;;3.97;2.03;;;27.30;58.40;;;;;;8298138;28;20092;-74
2022/08/15 12:29:14;;;;;;;4.57;2.20;;;27.40;57.90;;;;;;8298057;28;20058;-74
2022/08/15 12:33:19;;;;;;;5.00;2.13;;;27.50;58.00;;;;;;8317250;28;20053;-73
2022/08/15 12:37:25;;;;;;;4.50;1.90;;;27.40;57.40;;;;;;8330776;28;20557;-74
2022/08/15 12:41:28;;;;;;;6.38;2.92;;;27.50;57.40;;;;;;8331124;28;20052;-74
2022/08/15 12:45:30;;;;;;;6.78;2.20;;;27.50;56.80;;;;;;8332007;28;20488;-74
2022/08/15 12:49:34;;;;;;;4.75;2.13;;;27.70;57.30;;;;;;8331547;28;20049;-74
2022/08/15 12:53:38;;;;;;;4.50;2.40;;;27.60;57.60;;;;;;8331554;28;20053;-76
2022/08/15 12:57:40;;;;;;;4.70;2.25;;;27.60;56.70;;;;;;8330899;28;20137;-74
2022/08/15 13:01:45;;;;;;;4.00;2.10;;;27.70;56.90;;;;;;8329269;28;20070;-74
2022/08/15 13:05:55;;;;;;;3.58;2.00;;;27.80;56.60;;;;;;8330220;28;20053;-75
2022/08/15 13:09:58;;;;;;;4.25;2.30;;;28.00;56.00;;;;;;8330187;28;20476;-74
2022/08/15 13:14:00;;;;;;;4.30;2.30;;;28.00;55.60;;;;;;8326223;28;20100;-74
2022/08/15 13:18:02;;;;;;;4.18;2.30;;;28.10;55.50;;;;;;8326315;28;20076;-78
2022/08/15 13:26:26;;;;;;;5.22;2.20;;;27.90;58.00;;;;;;8297029;28;20407;-73
2022/08/15 13:30:28;;;;;;;5.13;2.25;;;27.70;58.40;;;;;;8296992;28;20056;-75
2022/08/15 13:34:31;;;;;;;3.75;2.20;;;27.80;59.60;;;;;;8296859;28;20045;-76
2022/08/15 13:38:34;;;;;;;4.35;1.95;;;28.10;58.90;;;;;;8296744;28;20125;-74
2022/08/15 13:42:36;;;;;;;3.83;2.20;;;28.10;58.60;;;;;;8295891;28;20085;-74
2022/08/15 13:46:39;;;;;;;3.67;1.98;;;28.00;57.70;;;;;;8296161;28;20053;-76
2022/08/15 13:50:42;;;;;;;3.78;2.10;;;27.90;58.40;;;;;;8295725;28;20369;-73
2022/08/15 13:54:47;;;;;;;5.80;2.17;;;28.00;57.90;;;;;;8327890;28;20068;-75
2022/08/15 13:58:49;;;;;;;4.85;2.08;;;28.20;61.10;;;;;;8327811;28;20053;-76
2022/08/15 14:02:51;;;;;;;3.33;2.00;;;28.10;61.00;;;;;;8327681;28;20049;-74
2022/08/15 14:06:54;;;;;;;3.45;1.90;;;28.40;57.70;;;;;;8328770;28;20404;-74
2022/08/15 14:10:58;;;;;;;3.83;2.05;;;28.60;60.70;;;;;;8328114;28;20054;-74
2022/08/15 14:15:00;;;;;;;4.15;2.30;;;29.00;57.90;;;;;;8308431;28;20057;-74
2022/08/15 14:19:04;;;;;;;4.28;2.10;;;29.10;57.80;;;;;;8328444;28;20050;-74
2022/08/15 14:23:07;;;;;;;4.07;2.22;;;29.30;57.30;;;;;;8317630;28;20423;-76
2022/08/15 14:27:10;;;;;;;5.85;2.15;;;29.60;56.90;;;;;;8300013;28;20090;-75
2022/08/15 14:31:13;;;;;;;4.68;2.20;;;29.10;55.60;;;;;;8296125;28;20050;-75
2022/08/15 14:35:16;;;;;;;5.97;2.53;;;28.70;59.30;;;;;;8293541;28;20085;-74
2022/08/15 14:39:18;;;;;;;5.20;2.47;;;28.80;59.20;;;;;;8294537;28;20049;-75
2022/08/15 14:43:22;;;;;;;5.35;2.20;;;28.50;60.20;;;;;;8294568;28;20408;-74
2022/08/15 14:47:25;;;;;;;4.35;2.38;;;28.40;61.30;;;;;;8294595;28;20053;-75
2022/08/15 14:51:31;;;;;;;4.50;2.40;;;28.10;61.50;;;;;;8294086;28;20089;-75
2022/08/15 14:55:36;;;;;;;7.90;2.00;;;27.80;64.20;;;;;;8294670;28;20104;-75
2022/08/15 14:59:40;;;;;;;8.07;2.72;;;27.00;62.90;;;;;;8293980;28;20500;-76
2022/08/15 15:03:42;;;;;;;17.67;4.38;;;25.10;78.50;;;;;;8294051;28;20061;-75
2022/08/15 15:07:45;;;;;;;10.50;3.60;;;23.80;90.10;;;;;;8296880;28;20045;-73
2022/08/15 15:11:47;;;;;;;8.30;3.13;;;23.10;91.80;;;;;;8305697;28;20056;-74
2022/08/15 15:15:52;;;;;;;7.88;2.30;;;23.00;93.40;;;;;;8310852;28;20057;-74
2022/08/15 15:19:56;;;;;;;8.43;2.50;;;22.90;93.60;;;;;;8314953;28;20627;-75
2022/08/15 15:23:58;;;;;;;5.93;2.05;;;22.90;93.10;;;;;;8316604;28;20045;-75
2022/08/15 15:28:00;;;;;;;5.43;2.30;;;22.80;94.00;;;;;;8329356;28;20476;-75
2022/08/15 15:32:04;;;;;;;5.90;2.13;;;22.90;95.20;;;;;;8305603;28;20046;-74
2022/08/15 15:36:10;;;;;;;5.75;1.95;;;23.20;93.50;;;;;;8303082;28;20050;-73
2022/08/15 15:40:25;;;;;;;6.57;1.85;;;23.00;91.80;;;;;;8332758;28;20045;-73
2022/08/15 15:44:28;;;;;;;4.80;1.83;;;23.20;91.50;;;;;;8333999;28;20053;-75
2022/08/15 15:48:33;;;;;;;4.43;1.77;;;23.40;94.40;;;;;;8331830;28;20396;-74
2022/08/15 15:52:40;;;;;;;5.47;2.22;;;23.50;94.40;;;;;;8329569;28;20072;-74
2022/08/15 15:56:42;;;;;;;5.40;2.70;;;23.60;92.40;;;;;;8331904;28;20444;-75
2022/08/15 16:00:46;;;;;;;4.60;2.20;;;23.60;93.00;;;;;;8331310;28;20454;-75
2022/08/15 16:04:50;;;;;;;4.80;2.00;;;23.50;92.70;;;;;;8329196;28;20068;-74
2022/08/15 16:08:53;;;;;;;4.82;2.20;;;23.60;92.60;;;;;;8332905;28;20057;-75
2022/08/15 16:12:57;;;;;;;6.05;2.58;;;23.90;92.90;;;;;;8327896;28;20052;-74
2022/08/15 16:17:03;;;;;;;4.72;2.00;;;24.30;91.40;;;;;;8303428;28;20053;-73
2022/08/15 16:21:14;;;;;;;4.63;2.13;;;24.50;90.60;;;;;;8327367;28;20053;-74
2022/08/15 16:25:24;;;;;;;4.75;2.10;;;24.50;90.70;;;;;;8328060;28;20072;-75
2022/08/15 16:29:35;;;;;;;3.73;2.03;;;24.50;92.20;;;;;;8330011;28;20045;-75
2022/08/15 16:33:41;;;;;;;5.50;2.20;;;24.90;92.60;;;;;;8305414;28;20054;-74
2022/08/15 16:37:50;;;;;;;3.67;1.88;;;25.60;93.10;;;;;;8298155;28;20064;-73
2022/08/15 16:41:56;;;;;;;4.22;1.80;;;26.50;90.80;;;;;;8304738;28;20397;-74
2022/08/15 16:46:15;;;;;;;6.45;2.80;;;26.90;87.40;;;;;;8319324;28;20049;-74
2022/08/15 16:50:27;;;;;;;4.37;1.80;;;26.40;87.20;;;;;;8309562;28;20140;-74
2022/08/15 16:54:49;;;;;;;4.50;1.80;;;26.60;86.50;;;;;;8310521;28;20451;-74
2022/08/15 16:59:00;;;;;;;5.15;1.95;;;27.40;85.10;;;;;;8318621;28;20476;-75
2022/08/15 17:03:31;;;;;;;3.78;1.90;;;27.90;84.50;;;;;;8316038;28;20046;-75
2022/08/15 17:07:46;;;;;;;4.00;1.92;;;28.00;82.60;;;;;;8323087;28;20064;-75
2022/08/15 17:12:04;;;;;;;5.28;2.00;;;28.00;81.60;;;;;;8313361;28;20103;-73
2022/08/15 17:16:28;;;;;;;5.18;2.10;;;28.10;81.30;;;;;;8325876;28;20061;-75
2022/08/15 17:20:40;;;;;;;5.53;1.90;;;28.10;79.20;;;;;;8322781;28;20050;-74
2022/08/15 17:25:04;;;;;;;4.72;1.73;;;28.20;79.00;;;;;;8354880;28;20046;-75
2022/08/15 17:29:13;;;;;;;4.38;2.13;;;28.00;78.90;;;;;;8329851;28;20046;-73
2022/08/15 17:33:22;;;;;;;4.03;1.70;;;28.20;77.10;;;;;;8305524;28;20053;-73
2022/08/15 17:37:25;;;;;;;3.25;1.60;;;28.60;76.20;;;;;;8337791;28;20041;-75
2022/08/15 17:41:33;;;;;;;5.13;1.70;;;28.70;75.10;;;;;;8353269;28;20064;-73
2022/08/15 17:45:38;;;;;;;4.05;1.55;;;28.70;72.20;;;;;;8314285;28;20049;-75
2022/08/15 17:49:47;;;;;;;4.97;2.00;;;28.50;71.40;;;;;;8300396;28;20042;-76
2022/08/15 17:53:56;;;;;;;4.43;1.90;;;28.50;73.10;;;;;;8319023;28;20078;-76
2022/08/15 17:58:04;;;;;;;5.75;1.90;;;28.40;72.90;;;;;;8324977;28;20044;-75
2022/08/15 18:02:12;;;;;;;6.75;1.60;;;28.20;72.00;;;;;;8323868;28;20567;-76
2022/08/15 18:06:14;;;;;;;5.22;2.00;;;27.90;70.50;;;;;;8327908;28;20049;-76
2022/08/15 18:10:23;;;;;;;5.25;2.30;;;27.40;72.10;;;;;;8320764;28;20048;-76
2022/08/15 18:14:25;;;;;;;4.30;1.83;;;27.30;72.30;;;;;;8318785;28;20411;-78
2022/08/15 18:18:29;;;;;;;3.25;1.70;;;27.20;71.90;;;;;;8311320;28;20152;-76
2022/08/15 18:22:32;;;;;;;5.07;1.67;;;27.00;72.50;;;;;;8322259;28;20381;-76
2022/08/15 18:26:38;;;;;;;3.75;1.80;;;26.70;73.40;;;;;;8308076;28;20041;-78
2022/08/15 18:30:41;;;;;;;5.72;1.92;;;26.50;74.30;;;;;;8298934;28;20056;-76
2022/08/15 18:34:53;;;;;;;4.13;1.67;;;26.10;76.90;;;;;;8294263;28;20594;-74
2022/08/15 18:43:18;;;;;;;5.40;1.85;;;25.40;76.90;;;;;;8298431;28;20061;-74
2022/08/15 18:47:29;;;;;;;4.50;1.80;;;25.10;82.10;;;;;;8323318;28;20069;-74
2022/08/15 18:51:42;;;;;;;4.18;2.08;;;24.80;84.70;;;;;;8307159;28;20045;-74
2022/08/15 18:55:51;;;;;;;5.20;2.20;;;24.30;87.90;;;;;;8302220;28;20053;-75
2022/08/15 19:00:00;;;;;;;5.90;2.20;;;24.10;90.30;;;;;;8315995;28;20125;-74
2022/08/15 19:04:06;;;;;;;4.45;2.10;;;23.80;91.90;;;;;;8315030;28;20133;-74
2022/08/15 19:08:22;;;;;;;3.72;2.13;;;23.60;92.70;;;;;;8322458;28;20050;-74
2022/08/15 19:12:34;;;;;;;4.63;2.00;;;23.60;92.80;;;;;;8353391;28;20045;-75
2022/08/15 19:16:41;;;;;;;5.63;2.40;;;23.50;92.90;;;;;;8338699;28;20053;-75
2022/08/15 19:20:43;;;;;;;4.55;2.20;;;23.40;92.50;;;;;;8333063;28;20468;-76
2022/08/15 19:24:48;;;;;;;6.57;3.72;;;23.20;93.00;;;;;;8315040;28;20050;-76
2022/08/15 19:29:03;;;;;;;6.43;3.50;;;23.10;92.20;;;;;;8320938;28;20124;-74
2022/08/15 19:33:24;;;;;;;5.30;2.40;;;23.00;92.80;;;;;;8314519;28;20048;-75
2022/08/15 19:37:43;;;;;;;5.18;2.85;;;22.90;92.90;;;;;;8340537;28;20076;-77
2022/08/15 19:41:56;;;;;;;5.60;2.63;;;22.80;92.50;;;;;;8342191;28;20053;-75
2022/08/15 19:46:13;;;;;;;4.78;2.10;;;22.70;93.00;;;;;;8366354;28;20045;-74
2022/08/15 19:54:47;;;;;;;4.18;2.10;;;22.50;92.60;;;;;;8310580;28;20149;-75
2022/08/15 19:58:58;;;;;;;5.53;2.08;;;22.50;93.40;;;;;;8319316;28;20404;-74
2022/08/15 20:03:07;;;;;;;5.03;2.30;;;22.40;93.90;;;;;;8309118;28;20061;-75
2022/08/15 20:07:17;;;;;;;5.20;2.40;;;22.30;94.10;;;;;;8305146;28;20061;-77
2022/08/15 20:11:28;;;;;;;4.90;2.27;;;22.10;94.80;;;;;;8306323;28;20060;-74
2022/08/15 20:15:45;;;;;;;5.07;2.40;;;21.90;95.10;;;;;;8336780;28;20052;-78
2022/08/15 20:19:59;;;;;;;4.53;2.10;;;21.80;96.00;;;;;;8307073;28;20488;-73
2022/08/15 20:24:08;;;;;;;4.38;2.20;;;21.60;96.00;;;;;;8321065;28;20053;-74
2022/08/15 20:28:13;;;;;;;5.13;3.08;;;21.50;96.30;;;;;;8317697;28;20416;-75
2022/08/15 20:32:23;;;;;;;5.70;2.50;;;21.40;96.90;;;;;;8325987;28;20052;-76
2022/08/15 20:36:28;;;;;;;4.35;2.35;;;21.40;96.60;;;;;;8320669;28;20053;-75
2022/08/15 20:40:36;;;;;;;5.47;2.58;;;21.30;97.20;;;;;;8308093;28;20053;-74
2022/08/15 20:44:44;;;;;;;4.18;2.40;;;21.20;97.50;;;;;;8310845;28;20046;-75
2022/08/15 20:48:55;;;;;;;4.53;2.53;;;21.20;97.90;;;;;;8320253;28;20061;-75
2022/08/15 20:52:59;;;;;;;4.82;2.72;;;21.10;97.90;;;;;;8308085;28;20058;-74
2022/08/15 20:57:04;;;;;;;5.55;2.55;;;21.20;97.80;;;;;;8306324;28;20049;-74
2022/08/15 21:01:14;;;;;;;4.68;2.47;;;21.10;97.90;;;;;;8314977;28;20092;-75
2022/08/15 21:05:28;;;;;;;5.00;2.88;;;20.90;98.10;;;;;;8306291;28;20057;-76
2022/08/15 21:09:48;;;;;;;6.97;4.30;;;20.90;98.30;;;;;;8304469;28;20068;-75
2022/08/15 21:14:04;;;;;;;5.35;2.63;;;20.90;98.40;;;;;;8307107;28;20045;-75
2022/08/15 21:18:21;;;;;;;6.57;2.92;;;20.90;98.60;;;;;;8308341;28;20100;-75
2022/08/15 21:22:49;;;;;;;5.65;2.50;;;20.90;98.60;;;;;;8318585;28;20051;-74
2022/08/15 21:26:54;;;;;;;5.55;2.83;;;21.00;98.80;;;;;;8335805;28;20050;-75
2022/08/15 21:31:15;;;;;;;4.85;2.72;;;20.90;98.70;;;;;;8324188;28;20049;-76
2022/08/15 21:35:35;;;;;;;4.00;2.33;;;20.90;99.20;;;;;;8334386;28;20060;-77
2022/08/15 21:39:51;;;;;;;4.32;2.60;;;20.90;99.00;;;;;;8302555;28;20077;-73
2022/08/15 21:44:12;;;;;;;4.22;2.60;;;20.90;99.30;;;;;;8301319;28;20042;-74
2022/08/15 21:48:44;;;;;;;5.05;2.65;;;20.80;99.00;;;;;;8297381;28;20045;-75
2022/08/15 21:52:49;;;;;;;5.10;2.65;;;20.70;98.90;;;;;;8248030;28;20041;-75
2022/08/15 21:56:58;;;;;;;4.82;2.70;;;20.60;99.00;;;;;;8308630;28;20045;-74